< Cyclone 198910 1989 Season Cyclone 198912 >
Cyclone 198911 (MEENA)
General InformationTrack Information on Google MapsDetailed Wind InformationList of All Images || ResourceGoogle EarthGE AnimationAtom FeedGeoJSON
Detalied Best Track (Time Zone = UTC)
Year Month Day Hour Lat. Long. Pressure (hPa) Wind (kt) Class Image Chart
1989 5 5 00 -13.3 160.0 994 35 3 Image --
1989 5 5 06 -13.7 159.3 992 37 3 Image --
1989 5 5 12 -14.5 158.9 992 37 3 Image --
1989 5 5 18 -15.4 158.0 992 37 3 Image --
1989 5 6 00 -15.2 156.3 992 43 3 Image --
1989 5 6 06 -14.9 155.0 990 51 4 Image --
1989 5 6 12 -14.1 154.2 995 41 3 Image --
1989 5 6 18 -13.6 153.2 995 37 3 Image --
1989 5 7 00 -13.3 152.0 995 37 3 Image --
1989 5 7 06 -13.0 150.8 995 37 3 Image --
1989 5 7 12 -12.7 149.7 995 37 3 Image --
1989 5 7 18 -12.7 148.4 995 37 3 Image --
1989 5 8 00 -12.7 147.3 995 37 3 Image --
1989 5 8 06 -12.5 146.2 995 37 3 Image --
1989 5 8 12 -12.4 145.1 998 37 3 Image --
1989 5 8 18 -12.3 144.2 1000 35 3 Image --
1989 5 9 00 -12.3 143.2 1004 35 3 Image --
1989 5 9 06 -12.2 142.3 1004 27 2 Image --
1989 5 9 12 -12.1 141.2 1005 21 2 Image --
1989 5 9 18 -12.0 140.1 1005 19 2 Image --
1989 5 10 00 -11.8 138.8 1007 16 2 Image --
1989 5 10 06 -11.4 137.4 1006 14 2 Image --
< Cyclone 198910 1989 Season Cyclone 198912 >

Help